Time;durP1;ratioP1;P1;durP2;ratioP2;P2;SDS_P1;SDS_P2;PMS_P1;PMS_P2;Temp;Humidity;BMP_temperature;BMP_pressure;BME280_temperature;BME280_humidity;BME280_pressure;Samples;Min_cycle;Max_cycle;Signal;HPM_P1;HPM_P2
2023/09/17 00:01:52;;;;;;;;;;;;;;;20.42;58.29;100105.59;5073892;28;20007;-76
2023/09/17 00:04:17;;;;;;;;;;;;;;;20.38;59.15;100103.56;5055981;28;19952;-76
2023/09/17 00:06:42;;;;;;;;;;;;;;;20.34;58.89;100105.06;5073923;28;20429;-76
2023/09/17 00:09:07;;;;;;;;;;;;;;;20.27;58.47;100103.31;5073818;28;19954;-76
2023/09/17 00:11:33;;;;;;;;;;;;;;;20.28;58.40;100099.59;5073756;28;19912;-76
2023/09/17 00:13:58;;;;;;;;;;;;;;;20.25;59.80;100093.84;5073702;28;20381;-75
2023/09/17 00:16:24;;;;;;;;;;;;;;;20.24;60.18;100090.34;5073794;28;19925;-76
2023/09/17 00:18:49;;;;;;;;;;;;;;;20.21;59.22;100085.44;5076001;28;19913;-75
2023/09/17 00:21:15;;;;;;;;;;;;;;;20.17;59.65;100084.28;5075405;28;19962;-75
2023/09/17 00:23:40;;;;;;;;;;;;;;;20.16;59.56;100097.91;5073524;28;20423;-76
2023/09/17 00:26:06;;;;;;;;;;;;;;;20.12;59.31;100084.13;5073651;28;19962;-76
2023/09/17 00:28:32;;;;;;;;;;;;;;;20.09;60.12;100092.63;5073175;28;19952;-75
2023/09/17 00:30:57;;;;;;;;;;;;;;;20.03;60.61;100085.47;5073197;28;19912;-75
2023/09/17 00:33:22;;;;;;;;;;;;;;;20.00;59.97;100086.72;5073232;28;19924;-75
2023/09/17 00:35:48;;;;;;;;;;;;;;;19.99;59.87;100093.13;5073203;28;20385;-75
2023/09/17 00:38:13;;;;;;;;;;;;;;;19.97;59.77;100081.81;5073316;28;19919;-75
2023/09/17 00:40:40;;;;;;;;;;;;;;;19.99;60.16;100086.97;5075115;28;19942;-75
2023/09/17 00:43:06;;;;;;;;;;;;;;;19.94;60.38;100079.59;5056108;28;20290;-76
2023/09/17 00:45:32;;;;;;;;;;;;;;;19.90;59.21;100085.63;5073075;28;19920;-75
2023/09/17 00:47:57;;;;;;;;;;;;;;;19.82;59.92;100083.25;5055259;28;19917;-76
2023/09/17 00:50:22;;;;;;;;;;;;;;;19.80;59.08;100086.16;5073304;28;20416;-77
2023/09/17 00:55:31;;;;;;;;;;;;;;;19.79;59.77;100091.75;5072886;28;20309;-76
2023/09/17 00:57:58;;;;;;;;;;;;;;;19.78;60.22;100095.47;5072862;28;19909;-76
2023/09/17 01:00:24;;;;;;;;;;;;;;;19.75;59.74;100090.56;5072694;28;20417;-76
2023/09/17 01:02:50;;;;;;;;;;;;;;;19.71;60.27;100089.38;5072525;28;19920;-77
2023/09/17 01:05:16;;;;;;;;;;;;;;;19.64;59.79;100082.22;5072540;28;20370;-76
2023/09/17 01:07:41;;;;;;;;;;;;;;;19.60;61.21;100083.72;5054661;28;19947;-75
2023/09/17 01:10:08;;;;;;;;;;;;;;;19.53;60.68;100082.97;5072583;28;20399;-76
2023/09/17 01:12:34;;;;;;;;;;;;;;;19.49;59.90;100084.44;5072518;28;20359;-75
2023/09/17 01:14:59;;;;;;;;;;;;;;;19.44;60.43;100088.81;5072517;28;19912;-76
2023/09/17 01:17:27;;;;;;;;;;;;;;;19.44;60.24;100092.31;5054333;28;19916;-75
2023/09/17 01:19:53;;;;;;;;;;;;;;;19.44;60.58;100091.50;5072378;28;19951;-76
2023/09/17 01:22:18;;;;;;;;;;;;;;;19.49;60.03;100094.34;5054382;28;19913;-76
2023/09/17 01:24:43;;;;;;;;;;;;;;;19.42;60.21;100090.91;5072201;28;19912;-76
2023/09/17 01:27:09;;;;;;;;;;;;;;;19.33;60.63;100077.81;5072277;28;19913;-77
2023/09/17 01:29:37;;;;;;;;;;;;;;;19.28;60.40;100076.81;5054352;28;19919;-77
2023/09/17 01:32:04;;;;;;;;;;;;;;;19.25;60.88;100079.94;5072290;28;20381;-77
2023/09/17 01:34:30;;;;;;;;;;;;;;;19.24;61.87;100078.28;5072223;28;19959;-76
2023/09/17 01:36:57;;;;;;;;;;;;;;;19.26;61.06;100074.34;5072103;28;20060;-77
2023/09/17 01:39:26;;;;;;;;;;;;;;;19.22;61.97;100072.34;5071920;28;19913;-74
2023/09/17 01:41:53;;;;;;;;;;;;;;;19.20;60.81;100077.91;5072129;28;19912;-74
2023/09/17 01:44:19;;;;;;;;;;;;;;;19.18;61.92;100071.97;5054549;28;19913;-74
2023/09/17 01:46:45;;;;;;;;;;;;;;;19.10;61.99;100060.72;5054373;28;19919;-76
2023/09/17 01:49:12;;;;;;;;;;;;;;;19.10;61.65;100066.91;5072038;28;20401;-76
2023/09/17 01:51:40;;;;;;;;;;;;;;;19.08;62.02;100068.97;5071410;28;19919;-76
2023/09/17 01:54:05;;;;;;;;;;;;;;;19.04;62.32;100071.28;5071823;28;20007;-76
2023/09/17 01:56:34;;;;;;;;;;;;;;;19.09;61.52;100075.16;5053948;28;19956;-76
2023/09/17 01:58:59;;;;;;;;;;;;;;;19.11;60.82;100067.72;5053815;28;19915;-76
2023/09/17 02:01:25;;;;;;;;;;;;;;;19.14;61.48;100078.81;5071609;28;19920;-77
2023/09/17 02:03:50;;;;;;;;;;;;;;;19.14;60.78;100084.16;5071914;28;19951;-76
2023/09/17 02:06:16;;;;;;;;;;;;;;;19.10;61.19;100077.59;5072076;28;19958;-77
2023/09/17 02:08:41;;;;;;;;;;;;;;;19.06;61.47;100073.72;5071927;28;19916;-77
2023/09/17 02:11:06;;;;;;;;;;;;;;;19.01;61.72;100078.94;5072079;28;19905;-74
2023/09/17 02:13:32;;;;;;;;;;;;;;;18.99;61.77;100070.28;5071776;28;19944;-76
2023/09/17 02:15:57;;;;;;;;;;;;;;;18.98;61.39;100074.00;5071907;28;19989;-76
2023/09/17 02:18:22;;;;;;;;;;;;;;;18.95;61.20;100072.59;5072076;28;20355;-76
2023/09/17 02:20:48;;;;;;;;;;;;;;;18.91;61.26;100068.72;5054150;28;19920;-77
2023/09/17 02:23:13;;;;;;;;;;;;;;;18.85;61.98;100071.44;5071808;28;20003;-74
2023/09/17 02:25:38;;;;;;;;;;;;;;;18.89;61.33;100070.78;5053548;28;19912;-76
2023/09/17 02:28:03;;;;;;;;;;;;;;;18.92;61.57;100067.69;5071469;28;20425;-76
2023/09/17 02:30:29;;;;;;;;;;;;;;;18.93;61.96;100060.47;5071481;28;20003;-76
2023/09/17 02:32:54;;;;;;;;;;;;;;;18.94;60.97;100062.09;5053566;28;19917;-76
2023/09/17 02:35:19;;;;;;;;;;;;;;;18.94;60.93;100059.44;5071653;28;19912;-76
2023/09/17 02:37:45;;;;;;;;;;;;;;;18.93;61.73;100060.47;5071536;28;19913;-77
2023/09/17 02:40:11;;;;;;;;;;;;;;;18.95;61.77;100064.56;5071379;28;19920;-76
2023/09/17 02:42:37;;;;;;;;;;;;;;;18.95;61.28;100061.06;5071463;28;19905;-75
2023/09/17 02:45:03;;;;;;;;;;;;;;;18.98;61.24;100057.97;5071559;28;19912;-76
2023/09/17 02:47:28;;;;;;;;;;;;;;;19.04;60.95;100059.75;5071541;28;19974;-76
2023/09/17 02:49:53;;;;;;;;;;;;;;;19.04;61.33;100054.41;5071333;28;20386;-76
2023/09/17 02:52:19;;;;;;;;;;;;;;;19.03;61.60;100056.25;5071362;28;19913;-76
2023/09/17 02:54:44;;;;;;;;;;;;;;;19.01;61.35;100062.88;5071193;28;19916;-76
2023/09/17 02:57:09;;;;;;;;;;;;;;;19.00;61.83;100051.34;5071348;28;20438;-75
2023/09/17 02:59:35;;;;;;;;;;;;;;;18.98;60.97;100058.78;5071298;28;20381;-74
2023/09/17 03:02:00;;;;;;;;;;;;;;;18.99;61.63;100055.06;5071052;28;19927;-76
2023/09/17 03:04:26;;;;;;;;;;;;;;;19.05;62.21;100061.38;5072434;28;20290;-74
2023/09/17 03:06:51;;;;;;;;;;;;;;;19.05;61.73;100056.03;5056902;28;19904;-76
2023/09/17 03:09:18;;;;;;;;;;;;;;;19.08;61.42;100062.81;5057848;28;19912;-76
2023/09/17 03:11:43;;;;;;;;;;;;;;;19.04;61.08;100067.78;5075685;28;19916;-74
2023/09/17 03:14:09;;;;;;;;;;;;;;;19.00;61.59;100061.22;5074852;28;20304;-74
2023/09/17 03:19:19;;;;;;;;;;;;;;;19.03;60.87;100060.78;5075061;28;19920;-77
2023/09/17 03:21:45;;;;;;;;;;;;;;;19.04;61.39;100067.78;5074776;28;19959;-76
2023/09/17 03:24:10;;;;;;;;;;;;;;;19.03;60.78;100058.13;5056702;28;20478;-75
2023/09/17 03:26:37;;;;;;;;;;;;;;;18.95;62.36;100064.56;5074744;28;19920;-75
2023/09/17 03:29:03;;;;;;;;;;;;;;;18.95;62.69;100064.56;5074522;28;20328;-76
2023/09/17 03:31:28;;;;;;;;;;;;;;;18.93;62.19;100065.81;5075645;28;20321;-77
2023/09/17 03:33:54;;;;;;;;;;;;;;;18.91;62.15;100058.00;5075819;28;19923;-76
2023/09/17 03:36:20;;;;;;;;;;;;;;;18.87;62.79;100056.81;5056847;28;19963;-77
2023/09/17 03:38:45;;;;;;;;;;;;;;;18.87;62.54;100070.19;5074671;28;19912;-76
2023/09/17 03:41:10;;;;;;;;;;;;;;;18.85;60.79;100066.91;5074489;28;19916;-77
2023/09/17 03:43:36;;;;;;;;;;;;;;;18.82;62.54;100074.56;5074466;28;19920;-75
2023/09/17 03:46:04;;;;;;;;;;;;;;;18.78;63.18;100070.69;5056366;28;19913;-76
2023/09/17 03:48:29;;;;;;;;;;;;;;;18.81;62.62;100070.25;5074413;28;19996;-76
2023/09/17 03:50:55;;;;;;;;;;;;;;;18.82;62.74;100079.91;5074360;28;19944;-76
2023/09/17 03:53:20;;;;;;;;;;;;;;;18.82;62.28;100075.38;5074030;28;19916;-76
2023/09/17 03:55:45;;;;;;;;;;;;;;;18.82;62.49;100075.38;5073976;28;19916;-76
2023/09/17 03:58:11;;;;;;;;;;;;;;;18.84;62.38;100073.31;5074132;28;20440;-76
2023/09/17 04:00:36;;;;;;;;;;;;;;;18.84;62.84;100078.66;5074243;28;19913;-77
2023/09/17 04:03:01;;;;;;;;;;;;;;;18.83;62.69;100078.88;5073898;28;20313;-76
2023/09/17 04:05:28;;;;;;;;;;;;;;;18.82;63.41;100079.91;5074022;28;19912;-76
2023/09/17 04:07:55;;;;;;;;;;;;;;;18.81;63.30;100078.28;5073132;28;21656;-73
2023/09/17 04:10:20;;;;;;;;;;;;;;;18.86;62.49;100087.28;5074049;28;19916;-74
2023/09/17 04:12:46;;;;;;;;;;;;;;;18.88;62.93;100076.38;5074057;28;19986;-76
2023/09/17 04:15:21;;;;;;;;;;;;;;;18.93;62.91;100077.34;5073432;28;20385;-77
2023/09/17 04:17:48;;;;;;;;;;;;;;;19.01;62.83;100079.75;5073662;28;19912;-76
2023/09/17 04:20:18;;;;;;;;;;;;;;;19.00;63.26;100074.63;5073451;28;19970;-77
2023/09/17 04:22:46;;;;;;;;;;;;;;;19.02;63.96;100075.22;5073538;28;19919;-76
2023/09/17 04:25:12;;;;;;;;;;;;;;;19.00;62.82;100072.75;5073605;28;19917;-77
2023/09/17 04:27:38;;;;;;;;;;;;;;;19.03;63.25;100074.16;5073653;28;19912;-76
2023/09/17 04:30:05;;;;;;;;;;;;;;;19.05;63.13;100078.25;5073501;28;19999;-75
2023/09/17 04:32:33;;;;;;;;;;;;;;;19.11;63.95;100076.56;5073504;28;19920;-76
2023/09/17 04:34:59;;;;;;;;;;;;;;;19.17;63.21;100083.72;5073351;28;19923;-76
2023/09/17 04:37:24;;;;;;;;;;;;;;;19.25;63.63;100072.72;5073208;28;19916;-76
2023/09/17 04:39:49;;;;;;;;;;;;;;;19.32;64.55;100086.03;5073381;28;20388;-77
2023/09/17 04:42:14;;;;;;;;;;;;;;;19.36;64.20;100080.03;5073340;28;19919;-76
2023/09/17 04:44:40;;;;;;;;;;;;;;;19.43;64.16;100079.97;5073447;28;20438;-76
2023/09/17 04:47:06;;;;;;;;;;;;;;;19.50;62.36;100079.91;5073338;28;20491;-75
2023/09/17 04:49:32;;;;;;;;;;;;;;;19.47;63.79;100086.53;5073069;28;19912;-76
2023/09/17 04:51:57;;;;;;;;;;;;;;;19.53;62.78;100084.84;5073161;28;19923;-76
2023/09/17 04:54:23;;;;;;;;;;;;;;;19.59;63.94;100086.63;5055173;28;19951;-76
2023/09/17 04:56:49;;;;;;;;;;;;;;;19.63;63.53;100090.50;5073103;28;19923;-76
2023/09/17 04:59:14;;;;;;;;;;;;;;;19.62;63.32;100091.53;5072788;28;20011;-75
2023/09/17 05:01:39;;;;;;;;;;;;;;;19.65;65.10;100086.56;5072657;28;19978;-76
2023/09/17 05:04:05;;;;;;;;;;;;;;;19.72;63.56;100093.69;5054788;28;20386;-76
2023/09/17 05:06:30;;;;;;;;;;;;;;;19.72;63.80;100091.00;5054859;28;19917;-76
2023/09/17 05:08:55;;;;;;;;;;;;;;;19.74;63.29;100094.28;5072527;28;19912;-76
2023/09/17 05:11:20;;;;;;;;;;;;;;;19.67;63.87;100095.19;5054499;28;20289;-76
2023/09/17 05:13:46;;;;;;;;;;;;;;;19.69;63.87;100100.31;5072367;28;19916;-76
2023/09/17 05:16:11;;;;;;;;;;;;;;;19.73;64.21;100103.38;5072515;28;19970;-76
2023/09/17 05:18:36;;;;;;;;;;;;;;;19.74;64.53;100103.16;5072424;28;19919;-76
2023/09/17 05:21:01;;;;;;;;;;;;;;;19.77;65.61;100102.69;5072314;28;19913;-76
2023/09/17 05:23:26;;;;;;;;;;;;;;;19.74;65.08;100105.00;5072345;28;20407;-75
2023/09/17 05:25:52;;;;;;;;;;;;;;;19.75;64.01;100101.28;5054409;28;19912;-76
2023/09/17 05:28:17;;;;;;;;;;;;;;;19.77;64.76;100105.38;5071706;28;19916;-75
2023/09/17 05:30:42;;;;;;;;;;;;;;;19.82;65.44;100110.06;5072260;28;19912;-76
2023/09/17 05:33:08;;;;;;;;;;;;;;;19.89;65.12;100094.72;5072115;28;19923;-76
2023/09/17 05:35:37;;;;;;;;;;;;;;;19.98;65.41;100109.44;5071976;28;19916;-76
2023/09/17 05:38:03;;;;;;;;;;;;;;;20.11;64.13;100103.13;5071989;28;19912;-76
2023/09/17 05:40:28;;;;;;;;;;;;;;;20.18;65.00;100102.00;5054079;28;19987;-75
2023/09/17 05:42:53;;;;;;;;;;;;;;;20.21;65.28;100106.91;5071876;28;20423;-75
2023/09/17 05:45:19;;;;;;;;;;;;;;;20.27;64.68;100102.50;5071811;28;19913;-75
2023/09/17 05:47:44;;;;;;;;;;;;;;;20.34;64.01;100103.22;5071713;28;20372;-76
2023/09/17 05:50:10;;;;;;;;;;;;;;;20.43;65.40;100107.25;5071950;28;19913;-75
2023/09/17 05:52:35;;;;;;;;;;;;;;;20.46;65.87;100111.34;5071649;28;19913;-75
2023/09/17 05:55:03;;;;;;;;;;;;;;;20.47;67.14;100110.28;5071634;28;19916;-75
2023/09/17 05:57:29;;;;;;;;;;;;;;;20.54;65.66;100113.69;5071922;28;19919;-74
2023/09/17 05:59:54;;;;;;;;;;;;;;;20.65;65.19;100117.44;5072268;28;19912;-75
2023/09/17 06:02:19;;;;;;;;;;;;;;;20.74;63.72;100121.44;5074988;28;19921;-77
2023/09/17 06:04:47;;;;;;;;;;;;;;;20.73;64.75;100117.94;5073708;28;19913;-76
2023/09/17 06:07:13;;;;;;;;;;;;;;;20.81;65.13;100114.13;5071997;28;19919;-76
2023/09/17 06:09:39;;;;;;;;;;;;;;;20.89;64.21;100113.78;5071979;28;20343;-75
2023/09/17 06:12:04;;;;;;;;;;;;;;;20.93;64.18;100114.97;5071797;28;20071;-76
2023/09/17 06:14:30;;;;;;;;;;;;;;;21.00;64.74;100120.22;5071758;28;20313;-76
2023/09/17 06:16:55;;;;;;;;;;;;;;;21.07;65.55;100118.25;5071738;28;19946;-75
2023/09/17 06:19:21;;;;;;;;;;;;;;;21.18;63.87;100123.63;5072113;28;19969;-75
2023/09/17 06:21:46;;;;;;;;;;;;;;;21.31;65.44;100122.59;5072125;28;19912;-73
2023/09/17 06:24:11;;;;;;;;;;;;;;;21.30;64.08;100129.00;5074265;28;19920;-77
2023/09/17 06:26:37;;;;;;;;;;;;;;;21.33;63.84;100120.50;5055164;28;20340;-77
2023/09/17 06:29:02;;;;;;;;;;;;;;;21.37;63.57;100120.84;5071692;28;19913;-75
2023/09/17 06:31:27;;;;;;;;;;;;;;;21.43;63.87;100122.59;5053613;28;19919;-76
2023/09/17 06:33:53;;;;;;;;;;;;;;;21.51;62.43;100123.03;5071461;28;19916;-76
2023/09/17 06:36:19;;;;;;;;;;;;;;;21.53;63.81;100120.94;5071529;28;19935;-76
2023/09/17 06:38:46;;;;;;;;;;;;;;;21.60;63.64;100123.53;5073325;28;20366;-76
2023/09/17 06:41:11;;;;;;;;;;;;;;;21.71;63.62;100124.56;5057500;28;20293;-76
2023/09/17 06:43:36;;;;;;;;;;;;;;;21.78;63.45;100118.00;5057459;28;19919;-75
2023/09/17 06:46:02;;;;;;;;;;;;;;;21.90;62.86;100126.03;5075302;28;19912;-76
2023/09/17 06:48:27;;;;;;;;;;;;;;;21.98;63.15;100125.66;5075205;28;20380;-76
2023/09/17 06:50:52;;;;;;;;;;;;;;;22.06;62.54;100122.63;5074976;28;19978;-76
2023/09/17 06:53:18;;;;;;;;;;;;;;;22.12;62.87;100129.75;5075547;28;19921;-76
2023/09/17 06:55:43;;;;;;;;;;;;;;;22.16;62.65;100120.13;5075209;28;19916;-76
2023/09/17 06:58:08;;;;;;;;;;;;;;;22.18;62.65;100123.41;5075436;28;19912;-76
2023/09/17 07:00:34;;;;;;;;;;;;;;;22.14;63.49;100119.56;5075269;28;20301;-76
2023/09/17 07:03:00;;;;;;;;;;;;;;;22.19;61.06;100126.91;5075030;28;19943;-76
2023/09/17 07:05:25;;;;;;;;;;;;;;;22.27;60.00;100114.94;5057226;28;19912;-76
2023/09/17 07:07:51;;;;;;;;;;;;;;;22.36;62.58;100125.13;5075146;28;19904;-76
2023/09/17 07:10:16;;;;;;;;;;;;;;;22.46;62.19;100125.31;5057031;28;19948;-77
2023/09/17 07:12:43;;;;;;;;;;;;;;;22.55;63.18;100122.22;5074992;28;19913;-76
2023/09/17 07:15:10;;;;;;;;;;;;;;;22.62;62.25;100123.69;5074763;28;20379;-76
2023/09/17 07:17:35;;;;;;;;;;;;;;;22.74;61.15;100121.75;5074820;28;20380;-75
2023/09/17 07:20:01;;;;;;;;;;;;;;;22.86;60.23;100121.69;5074830;28;19947;-76
2023/09/17 07:22:26;;;;;;;;;;;;;;;22.99;59.43;100118.69;5074756;28;19904;-77
2023/09/17 07:24:56;;;;;;;;;;;;;;;23.07;59.85;100115.59;5074511;28;19919;-74
2023/09/17 07:27:21;;;;;;;;;;;;;;;23.12;59.98;100118.38;5074636;28;20412;-76
2023/09/17 07:29:48;;;;;;;;;;;;;;;23.12;59.98;100118.38;5074537;28;19913;-77
2023/09/17 07:32:13;;;;;;;;;;;;;;;23.11;60.37;100116.75;5074588;28;19912;-76
2023/09/17 07:34:39;;;;;;;;;;;;;;;23.11;59.72;100118.63;5074663;28;20006;-76
2023/09/17 07:37:05;;;;;;;;;;;;;;;23.13;59.49;100121.88;5074381;28;19912;-76
2023/09/17 07:39:31;;;;;;;;;;;;;;;23.12;60.50;100118.38;5074430;28;20076;-76
2023/09/17 07:41:56;;;;;;;;;;;;;;;23.13;60.65;100130.78;5074392;28;19918;-76
2023/09/17 07:44:21;;;;;;;;;;;;;;;23.23;58.54;100127.44;5074348;28;20328;-76
2023/09/17 07:46:47;;;;;;;;;;;;;;;23.33;58.82;100130.28;5074275;28;19912;-77
2023/09/17 07:49:12;;;;;;;;;;;;;;;23.43;58.02;100125.03;5073739;28;19913;-74
2023/09/17 07:51:37;;;;;;;;;;;;;;;23.56;58.37;100117.69;5073917;28;19951;-76
2023/09/17 07:54:02;;;;;;;;;;;;;;;23.69;58.14;100117.31;5073930;28;19922;-76
2023/09/17 07:56:28;;;;;;;;;;;;;;;23.74;58.14;100120.88;5074291;28;19956;-76
2023/09/17 07:58:53;;;;;;;;;;;;;;;23.76;57.65;100116.06;5074072;28;19966;-75
2023/09/17 08:01:18;;;;;;;;;;;;;;;23.76;57.94;100117.94;5055915;28;19921;-76
2023/09/17 08:03:44;;;;;;;;;;;;;;;23.78;57.79;100110.41;5055947;28;20062;-75
2023/09/17 08:06:11;;;;;;;;;;;;;;;23.87;57.44;100114.34;5073602;28;19970;-75
2023/09/17 08:08:36;;;;;;;;;;;;;;;23.96;57.04;100110.13;5073726;28;20000;-76
2023/09/17 08:11:03;;;;;;;;;;;;;;;23.99;57.23;100104.22;5073764;28;20381;-76
2023/09/17 08:13:28;;;;;;;;;;;;;;;24.05;57.19;100100.53;5073559;28;20356;-75
2023/09/17 08:15:53;;;;;;;;;;;;;;;24.04;56.79;100101.59;5055548;28;19920;-76
2023/09/17 08:18:18;;;;;;;;;;;;;;;24.03;57.04;100101.84;5073762;28;19969;-76
2023/09/17 08:20:44;;;;;;;;;;;;;;;24.01;56.42;100103.97;5073610;28;19912;-75
2023/09/17 08:23:09;;;;;;;;;;;;;;;24.09;56.48;100095.44;5073457;28;19920;-75
2023/09/17 08:25:34;;;;;;;;;;;;;;;24.23;55.91;100090.44;5073176;28;19962;-75
2023/09/17 08:27:59;;;;;;;;;;;;;;;24.31;55.94;100093.53;5073265;28;20003;-75
2023/09/17 08:30:25;;;;;;;;;;;;;;;24.46;55.52;100087.47;5073319;28;19918;-75
2023/09/17 08:32:50;;;;;;;;;;;;;;;24.56;54.24;100084.91;5073207;28;19916;-77
2023/09/17 08:35:16;;;;;;;;;;;;;;;24.66;54.07;100078.78;5073268;28;19995;-76
2023/09/17 08:37:42;;;;;;;;;;;;;;;24.74;54.07;100078.28;5055389;28;20377;-76
2023/09/17 08:40:11;;;;;;;;;;;;;;;24.79;54.55;100081.03;5073178;28;20358;-76
2023/09/17 08:42:41;;;;;;;;;;;;;;;24.77;53.48;100076.97;5073137;28;19912;-76
2023/09/17 08:45:07;;;;;;;;;;;;;;;24.84;53.62;100078.38;5072989;28;20416;-76
2023/09/17 08:47:33;;;;;;;;;;;;;;;25.01;52.79;100079.06;5072977;28;19991;-76
2023/09/17 08:49:58;;;;;;;;;;;;;;;25.22;52.52;100080.00;5072742;28;19966;-76
2023/09/17 08:52:25;;;;;;;;;;;;;;;25.42;52.39;100065.00;5073002;28;19913;-75
2023/09/17 08:54:51;;;;;;;;;;;;;;;25.68;51.82;100076.78;5056519;28;19917;-76
2023/09/17 08:57:21;;;;;;;;;;;;;;;25.91;51.26;100074.44;5076418;28;20396;-76
2023/09/17 08:59:48;;;;;;;;;;;;;;;25.86;51.59;100071.69;5073000;28;19995;-76
2023/09/17 09:02:30;;;;;;;;;;;;;;;25.70;51.27;100069.22;5072484;28;19943;-77
2023/09/17 09:04:56;;;;;;;;;;;;;;;25.77;51.53;100073.28;5072561;28;19919;-75
2023/09/17 09:07:22;;;;;;;;;;;;;;;25.86;50.03;100062.78;5072494;28;19996;-75
2023/09/17 09:09:48;;;;;;;;;;;;;;;25.96;50.35;100070.91;5072660;28;19911;-75
2023/09/17 09:12:14;;;;;;;;;;;;;;;26.23;50.10;100074.25;5072493;28;19916;-76
2023/09/17 09:14:40;;;;;;;;;;;;;;;26.50;49.48;100073.25;5072452;28;19916;-76
2023/09/17 09:17:05;;;;;;;;;;;;;;;26.75;48.54;100069.72;5074577;28;19999;-78
2023/09/17 09:19:31;;;;;;;;;;;;;;;26.80;47.29;100070.56;5057932;28;19923;-77
2023/09/17 09:21:56;;;;;;;;;;;;;;;26.60;48.90;100057.00;5072624;28;19912;-76
2023/09/17 09:24:23;;;;;;;;;;;;;;;26.56;47.45;100055.91;5072508;28;19969;-76
2023/09/17 09:26:49;;;;;;;;;;;;;;;26.71;47.36;100057.78;5072571;28;19917;-77
2023/09/17 09:29:14;;;;;;;;;;;;;;;26.69;48.45;100059.97;5072339;28;19960;-75
2023/09/17 09:31:40;;;;;;;;;;;;;;;26.56;48.33;100055.91;5072496;28;19948;-76
2023/09/17 09:34:06;;;;;;;;;;;;;;;26.71;48.55;100057.78;5072169;28;19917;-76
2023/09/17 09:36:33;;;;;;;;;;;;;;;27.02;47.88;100048.59;5072050;28;19916;-76
2023/09/17 09:38:59;;;;;;;;;;;;;;;27.43;47.20;100043.06;5072622;28;19919;-76
2023/09/17 09:41:25;;;;;;;;;;;;;;;27.81;46.10;100047.84;5072076;28;19908;-77
2023/09/17 09:43:51;;;;;;;;;;;;;;;28.03;44.22;100050.16;5072037;28;19976;-75
2023/09/17 09:46:16;;;;;;;;;;;;;;;27.84;43.16;100049.19;5071956;28;19912;-77
2023/09/17 09:48:42;;;;;;;;;;;;;;;27.86;44.34;100047.00;5053869;28;19913;-76
2023/09/17 09:51:07;;;;;;;;;;;;;;;28.00;42.71;100042.56;5071887;28;19915;-76
2023/09/17 09:53:32;;;;;;;;;;;;;;;28.24;43.03;100045.47;5070333;28;19921;-77
2023/09/17 09:55:58;;;;;;;;;;;;;;;28.44;43.18;100044.50;5071481;28;20007;-77
2023/09/17 09:58:23;;;;;;;;;;;;;;;28.44;42.31;100034.44;5071651;28;19947;-77
2023/09/17 10:00:49;;;;;;;;;;;;;;;28.19;43.99;100040.00;5071940;28;20000;-77
2023/09/17 10:03:17;;;;;;;;;;;;;;;27.97;42.06;100036.88;5071670;28;20377;-76
2023/09/17 10:05:44;;;;;;;;;;;;;;;28.15;42.29;100036.22;5071715;28;20401;-74
2023/09/17 10:08:10;;;;;;;;;;;;;;;28.45;41.63;100030.63;5071779;28;19912;-77
2023/09/17 10:10:39;;;;;;;;;;;;;;;28.70;43.31;100034.22;5071540;28;19936;-74
2023/09/17 10:13:08;;;;;;;;;;;;;;;28.89;41.15;100028.91;5052820;28;19920;-75
2023/09/17 10:15:34;;;;;;;;;;;;;;;28.83;43.38;100024.56;5071571;28;19946;-75
2023/09/17 10:18:00;;;;;;;;;;;;;;;28.98;42.08;100027.19;5071478;28;19913;-78
2023/09/17 10:20:26;;;;;;;;;;;;;;;29.19;41.52;100019.63;5071586;28;20054;-76
2023/09/17 10:22:52;;;;;;;;;;;;;;;29.54;42.20;100016.50;5071579;28;19924;-76
2023/09/17 10:25:18;;;;;;;;;;;;;;;29.71;40.64;100019.53;5071388;28;20397;-77
2023/09/17 10:27:44;;;;;;;;;;;;;;;30.01;39.66;100020.25;5053414;28;20313;-76
2023/09/17 10:30:12;;;;;;;;;;;;;;;30.20;39.25;100021.06;5071469;28;20363;-76
2023/09/17 10:32:56;;;;;;;;;;;;;;;30.25;39.22;100020.97;5071622;28;19919;-76
2023/09/17 10:35:21;;;;;;;;;;;;;;;30.30;39.90;100014.66;5071396;28;19920;-77
2023/09/17 10:37:47;;;;;;;;;;;;;;;30.55;37.97;100016.16;5071311;28;19919;-75
2023/09/17 10:40:13;;;;;;;;;;;;;;;30.63;36.94;100004.59;5071292;28;19912;-75
2023/09/17 10:42:38;;;;;;;;;;;;;;;30.43;36.30;100000.25;5071221;28;20007;-76
2023/09/17 10:45:07;;;;;;;;;;;;;;;29.94;38.48;100006.19;5071430;28;19913;-76
2023/09/17 10:47:35;;;;;;;;;;;;;;;29.61;38.26;100007.97;5053084;28;19919;-76
2023/09/17 10:50:01;;;;;;;;;;;;;;;29.21;38.12;100006.56;5053353;28;19913;-76
2023/09/17 10:52:27;;;;;;;;;;;;;;;29.00;39.66;100006.78;5071193;28;19913;-76
2023/09/17 10:54:52;;;;;;;;;;;;;;;29.23;39.14;100005.16;5053510;28;19923;-76
2023/09/17 10:57:21;;;;;;;;;;;;;;;29.53;40.42;99992.31;5071212;28;19912;-77
2023/09/17 10:59:47;;;;;;;;;;;;;;;29.85;38.59;99994.34;5071023;28;19912;-76
2023/09/17 11:02:14;;;;;;;;;;;;;;;30.22;38.97;99985.34;5049468;28;19977;-76
2023/09/17 11:04:39;;;;;;;;;;;;;;;30.46;37.88;99988.75;5051245;28;19920;-76
2023/09/17 11:07:07;;;;;;;;;;;;;;;30.56;37.33;99979.63;5051182;28;19920;-76
2023/09/17 11:09:32;;;;;;;;;;;;;;;30.84;35.93;99975.84;5049882;28;19939;-76
2023/09/17 11:11:58;;;;;;;;;;;;;;;30.82;36.29;99972.63;5051126;28;19916;-76
2023/09/17 11:14:23;;;;;;;;;;;;;;;30.63;34.96;99963.72;5051012;28;19923;-76
2023/09/17 11:16:49;;;;;;;;;;;;;;;30.51;38.69;99972.34;5050952;28;19920;-77
2023/09/17 11:19:19;;;;;;;;;;;;;;;30.34;37.77;99966.63;5051356;28;19919;-76
2023/09/17 11:21:48;;;;;;;;;;;;;;;30.19;35.48;99961.44;5051249;28;19917;-76
2023/09/17 11:24:13;;;;;;;;;;;;;;;30.26;35.77;99964.59;5050967;28;19913;-75
2023/09/17 11:26:42;;;;;;;;;;;;;;;30.49;36.46;99957.41;5053965;28;19912;-76
2023/09/17 11:29:08;;;;;;;;;;;;;;;30.82;34.40;99959.00;5054407;28;19944;-76
2023/09/17 11:31:36;;;;;;;;;;;;;;;31.05;35.87;99953.63;5053186;28;19920;-76
2023/09/17 11:34:10;;;;;;;;;;;;;;;31.20;36.55;99956.09;5054424;28;19917;-76
2023/09/17 11:36:35;;;;;;;;;;;;;;;30.99;35.75;99961.94;5054378;28;19919;-76
2023/09/17 11:39:05;;;;;;;;;;;;;;;30.56;35.77;99957.81;5054298;28;19944;-76
2023/09/17 11:41:36;;;;;;;;;;;;;;;30.02;38.20;99953.81;5052917;28;19913;-76
2023/09/17 11:44:03;;;;;;;;;;;;;;;29.57;37.78;99944.38;5054102;28;19920;-76
2023/09/17 11:46:29;;;;;;;;;;;;;;;29.26;38.74;99942.03;5054032;28;19919;-76
2023/09/17 11:48:54;;;;;;;;;;;;;;;29.43;38.55;99938.84;5054148;28;19917;-76
2023/09/17 11:51:23;;;;;;;;;;;;;;;29.78;37.81;99928.56;5054244;28;19913;-76
2023/09/17 11:53:59;;;;;;;;;;;;;;;29.94;37.27;99933.47;5053987;28;19917;-76
2023/09/17 11:56:31;;;;;;;;;;;;;;;30.18;35.83;99921.69;5054155;28;19920;-76
2023/09/17 11:59:01;;;;;;;;;;;;;;;30.40;37.65;99921.03;5054038;28;20315;-76
2023/09/17 12:01:28;;;;;;;;;;;;;;;30.42;35.70;99924.25;5058078;28;20417;-76
2023/09/17 12:03:54;;;;;;;;;;;;;;;30.43;36.18;99920.44;5073873;28;19912;-76
2023/09/17 12:06:22;;;;;;;;;;;;;;;30.46;35.57;99915.19;5073771;28;20397;-76
2023/09/17 12:08:48;;;;;;;;;;;;;;;30.28;35.03;99914.16;5073728;28;19912;-76
2023/09/17 12:11:22;;;;;;;;;;;;;;;30.11;35.73;99911.19;5073731;28;19920;-76
2023/09/17 12:13:53;;;;;;;;;;;;;;;29.96;37.80;99911.41;5073467;28;19924;-76
2023/09/17 12:16:28;;;;;;;;;;;;;;;29.85;37.14;99902.59;5073513;28;19919;-76
2023/09/17 12:18:53;;;;;;;;;;;;;;;29.80;37.19;99896.41;5073531;28;20008;-75
2023/09/17 12:21:27;;;;;;;;;;;;;;;29.80;36.23;99894.50;5073603;28;19912;-76
2023/09/17 12:24:04;;;;;;;;;;;;;;;29.86;37.05;99892.50;5073698;28;19917;-76
2023/09/17 12:29:28;;;;;;;;;;;;;;;29.82;36.39;99888.78;5073329;28;19974;-75
2023/09/17 12:31:53;;;;;;;;;;;;;;;29.80;36.75;99886.34;5073255;28;19938;-76
2023/09/17 12:34:19;;;;;;;;;;;;;;;29.81;35.83;99890.69;5073314;28;20012;-76
2023/09/17 12:36:45;;;;;;;;;;;;;;;29.65;36.78;99886.56;5072999;28;19913;-75
2023/09/17 12:39:11;;;;;;;;;;;;;;;29.47;38.25;99884.66;5055307;28;20298;-76
2023/09/17 12:41:36;;;;;;;;;;;;;;;29.37;36.35;99886.38;5073095;28;19920;-74